EFRO Airport Information

Runway Information
Runway 03 Length 9849 ft width 197 ft
Elevation 633 ft Threshold 0 ft Heading 37
Runway 21 Length 9849 ft Width 197 ft
Elevation 609 ft Threshold 0 ft Heading 217
Airport Frequencies
Type APP Name APP Frequency 125.8 MHZ
Type ATIS Name ATIS Frequency 117.7 MHZ
Type GND Name GND Frequency 118.525 MHZ
Type PMSV Name PMSV METRO Frequency 125.1 MHZ
Type TWR Name TWR Frequency 118.7 MHZ
Airport Navaids
Type NDB Name Papa-Alfa Frequency 377 KHZ
Type VOR-DME Name Rovani Frequency 117700 KHZ
Type NDB Name Toramo Frequency 416 KHZ
Airport Weather Information & NOTAM
ADDS - METARS form results

(0623 UTC 15 December 2018)
Data provider http://aviationweather.gov/metar/data/
 
METAR text: EFRO 150620Z AUTO 20011KT 7000 -SG BKN003 OVC005 M05/M05 Q1030
Conditions at: EFRO (ROVANIEMI (CIV/M, FI) observed 0620 UTC 15 December 2018
Temperature: -5.0°C (23°F)
Dewpoint: -5.0°C (23°F) [RH = 100%]
Pressure (altimeter): 30.41 inches Hg (1030.0 mb)
Winds: from the SSW (200 degrees) at 13 MPH (11 knots; 5.7 m/s)
Visibility: 4 miles ( 7 km)
Ceiling: 300 feet AGL
Clouds: broken clouds at 300 feet AGL
overcast cloud deck at 500 feet AGL
Weather: -SG  (light snow grains)

METAR text: EFRO 150550Z AUTO 21010KT 5000 -SG BKN004 BKN006 M05/M05 Q1030
Conditions at: EFRO (ROVANIEMI (CIV/M, FI) observed 0550 UTC 15 December 2018
Temperature: -5.0°C (23°F)
Dewpoint: -5.0°C (23°F) [RH = 100%]
Pressure (altimeter): 30.41 inches Hg (1030.0 mb)
Winds: from the SSW (210 degrees) at 12 MPH (10 knots; 5.1 m/s)
Visibility: 3 miles ( 5 km)
Ceiling: 400 feet AGL
Clouds: broken clouds at 400 feet AGL
broken clouds at 600 feet AGL
Weather: -SG  (light snow grains)

Forecast for: EFRO (ROVANIEMI (CIV/M, FI)
Text: TAF EFRO 150530Z 1506/1606 20007KT 8000 -SG OVC005
Forecast period: 0600 UTC 15 December 2018 to 0600 UTC 16 December 2018
Forecast type: FROM: standard forecast or significant change
Winds: from the SSW (200 degrees) at 8 MPH (7 knots; 3.6 m/s)
Visibility: 5 miles (8 km)
Ceiling: 500 feet AGL
Clouds: overcast cloud deck at 500 feet AGL
Weather: -SG  (light snow grains)
Text: TEMPO 1506/1606 2000 -FZDZ BKN002
Forecast period: 0600 UTC 15 December 2018 to 0600 UTC 16 December 2018
Forecast type: TEMPORARY: The following changes expected for less than half the time period
Visibility: 1.24 miles (2.00 km)
Ceiling: 200 feet AGL
Clouds: broken clouds at 200 feet AGL
Weather: -FZDZ  (light freezing drizzle)